createdAt,value
2017-06-23T00:00:00.809Z,942.0
2017-06-23T00:01:08.793Z,941.9
2017-06-23T00:02:16.882Z,941.9
2017-06-23T00:03:25.093Z,941.9
2017-06-23T00:04:33.059Z,941.9
2017-06-23T00:05:41.150Z,941.9
2017-06-23T00:06:49.298Z,941.9
2017-06-23T00:07:57.332Z,941.9
2017-06-23T00:09:05.545Z,941.9
2017-06-23T00:10:13.517Z,941.9
2017-06-23T00:11:21.608Z,941.9
2017-06-23T00:12:29.700Z,941.9
2017-06-23T00:13:37.788Z,941.9
2017-06-23T00:14:46.003Z,941.9
2017-06-23T00:15:54.113Z,941.9
2017-06-23T00:17:02.223Z,941.9
2017-06-23T00:18:10.151Z,941.9
2017-06-23T00:19:18.242Z,941.9
2017-06-23T00:20:26.387Z,941.9
2017-06-23T00:21:34.420Z,941.9
2017-06-23T00:22:42.631Z,941.9
2017-06-23T00:23:50.601Z,942.0
2017-06-23T00:24:58.692Z,942.0
2017-06-23T00:26:06.903Z,942.0
2017-06-23T00:27:14.873Z,942.0
2017-06-23T00:28:22.968Z,942.0
2017-06-23T00:29:31.057Z,942.0
2017-06-23T00:30:39.147Z,942.0
2017-06-23T00:31:47.290Z,942.0
2017-06-23T00:32:55.323Z,942.0
2017-06-23T00:34:03.415Z,942.0
2017-06-23T00:35:11.505Z,942.0
2017-06-23T00:36:19.596Z,942.0
2017-06-23T00:37:27.806Z,942.0
2017-06-23T00:38:35.902Z,942.0
2017-06-23T00:39:44.000Z,942.0
2017-06-23T00:40:51.963Z,942.0
2017-06-23T00:42:00.057Z,942.0
2017-06-23T00:43:08.200Z,942.0
2017-06-23T00:44:16.236Z,941.9
2017-06-23T00:45:24.326Z,942.0
2017-06-23T00:46:32.417Z,942.0
2017-06-23T00:47:40.506Z,941.9
2017-06-23T00:48:48.653Z,941.9
2017-06-23T00:49:56.688Z,941.9
2017-06-23T00:51:04.780Z,941.9
2017-06-23T00:52:12.867Z,941.9
2017-06-23T00:53:20.958Z,941.9
2017-06-23T00:54:29.167Z,941.9
2017-06-23T00:55:37.138Z,941.8
2017-06-23T00:56:45.377Z,941.9
2017-06-23T00:57:53.320Z,941.8
2017-06-23T00:59:04.074Z,941.8
2017-06-23T01:00:09.618Z,941.8
2017-06-23T01:01:17.588Z,941.8
2017-06-23T01:02:25.719Z,941.8
2017-06-23T01:03:33.770Z,941.9
2017-06-23T01:04:41.861Z,941.9
2017-06-23T01:05:50.007Z,941.9
2017-06-23T01:06:58.043Z,941.9
2017-06-23T01:08:06.131Z,941.9
2017-06-23T01:09:14.220Z,941.9
2017-06-23T01:10:22.430Z,941.9
2017-06-23T01:11:30.523Z,941.9
2017-06-23T01:12:38.490Z,941.8
2017-06-23T01:13:46.583Z,941.9
2017-06-23T01:14:54.673Z,941.9
2017-06-23T01:16:02.765Z,941.9
2017-06-23T01:17:10.975Z,941.9
2017-06-23T01:18:18.944Z,941.9
2017-06-23T01:19:27.150Z,941.9
2017-06-23T01:20:35.122Z,941.9
2017-06-23T01:21:43.212Z,941.9
2017-06-23T01:22:51.360Z,941.9
2017-06-23T01:23:59.394Z,941.8
2017-06-23T01:25:07.544Z,941.8
2017-06-23T01:26:15.778Z,941.8
2017-06-23T01:27:23.666Z,941.8
2017-06-23T01:28:31.811Z,941.8
2017-06-23T01:29:39.847Z,941.9
2017-06-23T01:30:47.933Z,941.8
2017-06-23T01:31:56.038Z,941.8
2017-06-23T01:33:04.114Z,941.8
2017-06-23T01:34:12.327Z,941.8
2017-06-23T01:35:20.295Z,941.8
2017-06-23T01:36:28.416Z,941.8
2017-06-23T01:37:36.477Z,941.7
2017-06-23T01:38:44.566Z,941.7
2017-06-23T01:39:52.712Z,941.7
2017-06-23T01:41:00.745Z,941.7
2017-06-23T01:42:08.957Z,941.7
2017-06-23T01:43:17.065Z,941.7
2017-06-23T01:44:25.018Z,941.7
2017-06-23T01:45:33.229Z,941.7
2017-06-23T01:46:41.198Z,941.8
2017-06-23T01:47:49.288Z,941.8
2017-06-23T01:48:57.377Z,941.8
2017-06-23T01:50:05.468Z,941.8
2017-06-23T01:51:13.615Z,941.7
2017-06-23T01:52:21.650Z,941.7
2017-06-23T01:53:29.738Z,941.6
2017-06-23T01:54:37.875Z,941.6
2017-06-23T01:55:45.968Z,941.6
2017-06-23T01:56:54.067Z,941.6
2017-06-23T01:58:02.221Z,941.7
2017-06-23T01:59:10.191Z,941.7
2017-06-23T02:00:18.280Z,941.6
2017-06-23T02:01:26.371Z,941.6
2017-06-23T02:02:34.518Z,941.7
2017-06-23T02:03:42.551Z,941.7
2017-06-23T02:04:50.644Z,941.6
2017-06-23T02:05:58.880Z,941.6
2017-06-23T02:07:06.824Z,941.6
2017-06-23T02:08:15.035Z,941.6
2017-06-23T02:09:23.003Z,941.7
2017-06-23T02:10:31.093Z,941.7
2017-06-23T02:11:39.274Z,941.7
2017-06-23T02:12:47.390Z,941.6
2017-06-23T02:13:55.420Z,941.7
2017-06-23T02:15:03.455Z,941.6
2017-06-23T02:16:11.545Z,941.7
2017-06-23T02:17:19.637Z,941.7
2017-06-23T02:18:27.749Z,941.7
2017-06-23T02:19:35.936Z,941.8
2017-06-23T02:20:43.904Z,941.8
2017-06-23T02:21:51.995Z,941.8
2017-06-23T02:23:00.085Z,941.8
2017-06-23T02:24:08.177Z,941.8
2017-06-23T02:25:16.391Z,941.7
2017-06-23T02:26:24.360Z,941.8
2017-06-23T02:27:32.451Z,941.8
2017-06-23T02:28:40.669Z,941.8
2017-06-23T02:29:48.823Z,941.8
2017-06-23T02:30:56.842Z,941.8
2017-06-23T02:32:04.812Z,941.8
2017-06-23T02:33:12.900Z,941.7
2017-06-23T02:34:21.011Z,941.8
2017-06-23T02:35:29.142Z,941.8
2017-06-23T02:36:37.294Z,941.8
2017-06-23T02:37:45.264Z,941.8
2017-06-23T02:38:53.353Z,941.8
2017-06-23T02:40:01.442Z,941.8
2017-06-23T02:41:09.534Z,941.9
2017-06-23T02:42:17.681Z,941.9
2017-06-23T02:43:25.714Z,941.9
2017-06-23T02:44:33.806Z,941.9
2017-06-23T02:45:42.173Z,941.9
2017-06-23T02:46:50.161Z,941.8
2017-06-23T02:47:58.196Z,941.8
2017-06-23T02:49:06.166Z,941.8
2017-06-23T02:50:14.260Z,941.8
2017-06-23T02:51:22.351Z,941.8
2017-06-23T02:52:30.442Z,941.8
2017-06-23T02:53:38.588Z,941.9
2017-06-23T02:54:46.630Z,941.8
2017-06-23T02:55:54.719Z,941.8
2017-06-23T02:57:02.810Z,941.8
2017-06-23T02:58:10.974Z,941.8
2017-06-23T02:59:19.221Z,941.8
2017-06-23T03:00:27.081Z,941.9
2017-06-23T03:01:35.298Z,941.9
2017-06-23T03:02:43.268Z,941.9
2017-06-23T03:03:51.357Z,941.9
2017-06-23T03:04:59.502Z,941.9
2017-06-23T03:06:07.537Z,941.9
2017-06-23T03:07:15.637Z,941.9
2017-06-23T03:08:23.729Z,941.8
2017-06-23T03:09:31.819Z,941.9
2017-06-23T03:10:40.030Z,941.8
2017-06-23T03:11:47.997Z,941.9
2017-06-23T03:12:56.088Z,941.9
2017-06-23T03:14:04.179Z,941.9
2017-06-23T03:15:12.463Z,941.9
2017-06-23T03:16:20.479Z,941.9
2017-06-23T03:17:29.362Z,941.9
2017-06-23T03:18:36.539Z,941.9
2017-06-23T03:19:44.629Z,941.9
2017-06-23T03:20:52.717Z,941.9
2017-06-23T03:22:01.040Z,942.0
2017-06-23T03:23:08.985Z,942.0
2017-06-23T03:24:16.988Z,942.0
2017-06-23T03:25:25.077Z,942.0
2017-06-23T03:26:33.167Z,942.0
2017-06-23T03:27:41.346Z,942.0
2017-06-23T03:28:49.347Z,942.0
2017-06-23T03:29:57.437Z,942.0
2017-06-23T03:31:05.528Z,942.0
2017-06-23T03:32:13.616Z,942.0
2017-06-23T03:33:21.826Z,942.0
2017-06-23T03:34:29.795Z,942.0
2017-06-23T03:35:37.884Z,942.0
2017-06-23T03:36:45.973Z,942.0
2017-06-23T03:37:54.063Z,942.1
2017-06-23T03:39:02.454Z,942.1
2017-06-23T03:40:10.246Z,942.0
2017-06-23T03:41:18.334Z,942.0
2017-06-23T03:42:26.423Z,942.1
2017-06-23T03:43:34.511Z,942.1
2017-06-23T03:44:42.761Z,942.1
2017-06-23T03:45:50.836Z,942.1
2017-06-23T03:46:58.967Z,942.0
2017-06-23T03:48:06.869Z,942.1
2017-06-23T03:49:15.079Z,942.1
2017-06-23T03:50:23.168Z,942.0
2017-06-23T03:51:31.136Z,942.0
2017-06-23T03:52:39.224Z,942.1
2017-06-23T03:53:47.315Z,942.1
2017-06-23T03:54:55.405Z,942.1
2017-06-23T03:56:03.550Z,942.1
2017-06-23T03:57:11.584Z,942.1
2017-06-23T03:58:19.682Z,942.0
2017-06-23T03:59:27.773Z,942.0
2017-06-23T04:00:35.873Z,942.0
2017-06-23T04:01:44.490Z,942.0
2017-06-23T04:02:52.038Z,942.0
2017-06-23T04:04:00.126Z,942.0
2017-06-23T04:05:08.337Z,942.0
2017-06-23T04:06:16.309Z,942.0
2017-06-23T04:07:24.452Z,942.0
2017-06-23T04:08:32.634Z,942.0
2017-06-23T04:09:40.581Z,942.0
2017-06-23T04:10:48.673Z,942.0
2017-06-23T04:11:56.762Z,942.1
2017-06-23T04:13:04.971Z,942.0
2017-06-23T04:14:12.999Z,942.1
2017-06-23T04:15:21.101Z,942.1
2017-06-23T04:16:29.120Z,942.1
2017-06-23T04:17:37.209Z,942.1
2017-06-23T04:18:45.418Z,942.1
2017-06-23T04:19:53.385Z,942.1
2017-06-23T04:21:01.533Z,942.1
2017-06-23T04:22:09.566Z,942.2
2017-06-23T04:23:17.654Z,942.2
2017-06-23T04:24:25.866Z,942.2
2017-06-23T04:25:33.833Z,942.2
2017-06-23T04:26:41.921Z,942.2
2017-06-23T04:27:50.010Z,942.2
2017-06-23T04:28:58.097Z,942.2
2017-06-23T04:30:06.245Z,942.2
2017-06-23T04:31:14.276Z,942.2
2017-06-23T04:32:22.371Z,942.2
2017-06-23T04:33:30.463Z,942.2
2017-06-23T04:34:38.552Z,942.3
2017-06-23T04:35:46.762Z,942.2
2017-06-23T04:36:54.793Z,942.2
2017-06-23T04:38:02.936Z,942.2
2017-06-23T04:39:10.908Z,942.2
2017-06-23T04:40:18.997Z,942.3
2017-06-23T04:41:27.143Z,942.2
2017-06-23T04:42:35.175Z,942.3
2017-06-23T04:43:43.289Z,942.2
2017-06-23T04:44:51.353Z,942.2
2017-06-23T04:45:59.440Z,942.2
2017-06-23T04:47:07.653Z,942.2
2017-06-23T04:48:15.618Z,942.2
2017-06-23T04:49:23.788Z,942.2
2017-06-23T04:50:31.798Z,942.2
2017-06-23T04:51:40.346Z,942.3
2017-06-23T04:52:48.105Z,942.3
2017-06-23T04:53:56.070Z,942.3
2017-06-23T04:55:04.572Z,942.3
2017-06-23T04:56:12.250Z,942.3
2017-06-23T04:57:20.854Z,942.3
2017-06-23T04:58:28.547Z,942.2
2017-06-23T04:59:36.531Z,942.2
2017-06-23T05:00:44.731Z,942.3
2017-06-23T05:01:52.694Z,942.2
2017-06-23T05:03:01.404Z,942.3
2017-06-23T05:04:09.008Z,942.3
2017-06-23T05:05:16.960Z,942.3
2017-06-23T05:06:25.073Z,942.3
2017-06-23T05:07:33.692Z,942.3
2017-06-23T05:08:41.348Z,942.4
2017-06-23T05:09:49.372Z,942.3
2017-06-23T05:10:57.451Z,942.3
2017-06-23T05:12:05.493Z,942.3
2017-06-23T05:13:13.692Z,942.3
2017-06-23T05:14:21.670Z,942.4
2017-06-23T05:15:29.879Z,942.4
2017-06-23T05:16:38.076Z,942.5
2017-06-23T05:17:45.937Z,942.5
2017-06-23T05:18:54.073Z,942.4
2017-06-23T05:20:02.786Z,942.4
2017-06-23T05:21:10.324Z,942.4
2017-06-23T05:22:18.594Z,942.5
2017-06-23T05:23:26.675Z,942.5
2017-06-23T05:24:34.591Z,942.6
2017-06-23T05:25:42.559Z,942.6
2017-06-23T05:26:50.773Z,942.6
2017-06-23T05:27:58.738Z,942.5
2017-06-23T05:29:06.828Z,942.5
2017-06-23T05:30:15.090Z,942.5
2017-06-23T05:31:23.007Z,942.6
2017-06-23T05:32:31.153Z,942.6
2017-06-23T05:33:39.186Z,942.6
2017-06-23T05:34:47.273Z,942.5
2017-06-23T05:35:55.368Z,942.6
2017-06-23T05:37:03.478Z,942.5
2017-06-23T05:38:11.657Z,942.6
2017-06-23T05:39:20.057Z,942.6
2017-06-23T05:40:29.762Z,942.6
2017-06-23T05:41:35.806Z,942.6
2017-06-23T05:42:43.995Z,942.6
2017-06-23T05:43:52.104Z,942.6
2017-06-23T05:45:00.070Z,942.6
2017-06-23T05:46:08.674Z,942.6
2017-06-23T05:47:16.448Z,942.7
2017-06-23T05:48:24.534Z,942.6
2017-06-23T05:49:32.550Z,942.6
2017-06-23T05:50:40.519Z,942.7
2017-06-23T05:51:48.606Z,942.7
2017-06-23T05:52:56.695Z,942.7
2017-06-23T05:54:04.787Z,942.7
2017-06-23T05:55:12.991Z,942.7
2017-06-23T05:56:21.467Z,942.7
2017-06-23T05:57:29.052Z,942.7
2017-06-23T05:58:37.147Z,942.7
2017-06-23T05:59:45.237Z,942.7
2017-06-23T06:00:53.380Z,942.7
2017-06-23T06:02:01.414Z,942.7
2017-06-23T06:03:09.500Z,942.7
2017-06-23T06:04:17.590Z,942.7
2017-06-23T06:05:25.886Z,942.7
2017-06-23T06:06:34.069Z,942.7
2017-06-23T06:07:41.858Z,942.7
2017-06-23T06:08:49.947Z,942.7
2017-06-23T06:09:58.046Z,942.7
2017-06-23T06:11:06.134Z,942.8
2017-06-23T06:12:14.435Z,942.8
2017-06-23T06:13:22.310Z,942.8
2017-06-23T06:14:30.401Z,942.8
2017-06-23T06:15:38.492Z,942.8
2017-06-23T06:16:46.581Z,942.8
2017-06-23T06:17:54.788Z,942.8
2017-06-23T06:19:02.777Z,942.9
2017-06-23T06:20:10.858Z,942.8
2017-06-23T06:21:18.946Z,942.9
2017-06-23T06:39:28.377Z,942.9
2017-06-23T06:40:36.461Z,942.9
2017-06-23T06:41:44.550Z,942.9
2017-06-23T06:42:52.638Z,942.9
2017-06-23T06:44:00.849Z,942.9
2017-06-23T06:45:08.818Z,942.9
2017-06-23T06:46:17.020Z,942.9
2017-06-23T06:47:25.256Z,942.9
2017-06-23T06:48:33.083Z,942.9
2017-06-23T06:49:41.294Z,942.9
2017-06-23T06:50:49.264Z,942.9
2017-06-23T06:51:57.443Z,942.9
2017-06-23T06:53:05.441Z,943.0
2017-06-23T06:54:13.651Z,943.0
2017-06-23T06:55:21.675Z,943.0
2017-06-23T06:56:29.775Z,943.0
2017-06-23T06:57:37.949Z,943.0
2017-06-23T06:58:45.885Z,943.0
2017-06-23T06:59:53.975Z,943.0
2017-06-23T07:01:02.185Z,943.0
2017-06-23T07:02:10.406Z,943.0
2017-06-23T07:03:18.244Z,943.0
2017-06-23T07:04:26.333Z,943.1
2017-06-23T07:05:34.424Z,943.1
2017-06-23T07:06:42.631Z,943.1
2017-06-23T07:07:50.600Z,943.1
2017-06-23T07:08:58.780Z,943.1
2017-06-23T07:10:06.900Z,943.1
2017-06-23T07:11:14.869Z,943.1
2017-06-23T07:12:23.078Z,943.1
2017-06-23T07:13:31.049Z,943.1
2017-06-23T07:14:39.147Z,943.1
2017-06-23T07:15:47.377Z,943.1
2017-06-23T07:16:55.325Z,943.2
2017-06-23T07:18:03.471Z,943.2
2017-06-23T07:19:11.531Z,943.2
2017-06-23T07:20:19.595Z,943.1
2017-06-23T07:21:27.685Z,943.2
2017-06-23T07:22:35.775Z,943.1
2017-06-23T07:23:43.986Z,943.2
2017-06-23T07:24:51.957Z,943.1
2017-06-23T07:26:00.254Z,943.1
2017-06-23T07:27:08.219Z,943.1
2017-06-23T07:28:16.379Z,943.1
2017-06-23T07:29:24.434Z,943.1
2017-06-23T07:30:32.403Z,943.1
2017-06-23T07:31:40.494Z,943.1
2017-06-23T07:32:48.662Z,943.1
2017-06-23T07:33:56.673Z,943.1
2017-06-23T07:35:04.883Z,943.1
2017-06-23T07:36:12.851Z,943.0
2017-06-23T07:37:20.942Z,943.0
2017-06-23T07:38:29.031Z,943.1
2017-06-23T07:39:37.133Z,943.0
2017-06-23T07:40:45.333Z,943.0
2017-06-23T07:41:53.421Z,943.0
2017-06-23T07:43:01.398Z,943.1
2017-06-23T07:44:09.485Z,943.0
2017-06-23T07:45:17.574Z,943.0
2017-06-23T07:46:25.784Z,943.1
2017-06-23T07:47:33.754Z,943.1
2017-06-23T07:48:41.847Z,943.1
2017-06-23T07:49:50.010Z,943.1
2017-06-23T07:50:58.044Z,943.1
2017-06-23T07:52:06.235Z,943.0
2017-06-23T07:53:14.203Z,943.1
2017-06-23T07:54:22.312Z,943.1
2017-06-23T07:55:30.384Z,943.1
2017-06-23T07:56:38.524Z,943.1
2017-06-23T07:57:46.621Z,943.1
2017-06-23T07:58:54.655Z,943.2
2017-06-23T08:00:02.903Z,943.2
2017-06-23T08:01:10.836Z,943.2
2017-06-23T08:02:18.923Z,943.2
2017-06-23T08:03:27.133Z,943.2
2017-06-23T08:04:35.103Z,943.2
2017-06-23T08:05:43.194Z,943.2
2017-06-23T08:06:51.467Z,943.2
2017-06-23T08:07:59.374Z,943.3
2017-06-23T08:09:07.588Z,943.2
2017-06-23T08:10:15.556Z,943.3
2017-06-23T08:11:23.646Z,943.3
2017-06-23T08:12:31.826Z,943.3
2017-06-23T08:13:39.980Z,943.2
2017-06-23T08:14:48.036Z,943.3
2017-06-23T08:15:56.007Z,943.3
2017-06-23T08:17:04.098Z,943.4
2017-06-23T08:18:12.188Z,943.3
2017-06-23T08:19:20.346Z,943.3
2017-06-23T08:20:28.490Z,943.3
2017-06-23T08:21:36.459Z,943.3
2017-06-23T08:22:44.549Z,943.3
2017-06-23T08:23:52.638Z,943.3
2017-06-23T08:25:00.731Z,943.3
2017-06-23T08:26:08.971Z,943.3
2017-06-23T08:27:16.909Z,943.3
2017-06-23T08:28:24.999Z,943.3
2017-06-23T08:29:33.209Z,943.3
2017-06-23T08:30:41.181Z,943.3
2017-06-23T08:31:49.326Z,943.4
2017-06-23T08:32:57.358Z,943.4
2017-06-23T08:34:05.450Z,943.3
2017-06-23T08:35:13.540Z,943.3
2017-06-23T08:36:21.804Z,943.3
2017-06-23T08:37:29.841Z,943.3
2017-06-23T08:38:37.812Z,943.2
2017-06-23T08:39:45.901Z,943.3
2017-06-23T08:40:53.989Z,943.2
2017-06-23T08:42:02.166Z,943.2
2017-06-23T08:43:10.412Z,943.3
2017-06-23T08:44:18.261Z,943.2
2017-06-23T08:45:26.408Z,943.2
2017-06-23T08:46:34.441Z,943.3
2017-06-23T08:47:42.533Z,943.3
2017-06-23T08:48:50.772Z,943.3
2017-06-23T08:49:58.715Z,943.3
2017-06-23T08:51:06.804Z,943.3
2017-06-23T08:52:14.891Z,943.3
2017-06-23T08:53:22.983Z,943.3
2017-06-23T08:54:31.194Z,943.3
2017-06-23T08:55:39.189Z,943.3
2017-06-23T08:56:47.256Z,943.3
2017-06-23T08:57:55.346Z,943.3
2017-06-23T08:59:03.437Z,943.4
2017-06-23T09:00:11.646Z,943.3
2017-06-23T09:01:19.738Z,943.4
2017-06-23T09:02:27.706Z,943.3
2017-06-23T09:03:35.795Z,943.4
2017-06-23T09:04:43.887Z,943.3
2017-06-23T09:05:52.277Z,943.3
2017-06-23T09:07:00.068Z,943.3
2017-06-23T09:08:08.158Z,943.3
2017-06-23T09:09:16.249Z,943.3
2017-06-23T09:10:24.338Z,943.4
2017-06-23T09:11:32.484Z,943.5
2017-06-23T09:12:40.616Z,943.4
2017-06-23T09:13:48.608Z,943.4
2017-06-23T09:14:56.698Z,943.3
2017-06-23T09:16:04.790Z,943.4
2017-06-23T09:17:13.001Z,943.4
2017-06-23T09:18:20.971Z,943.4
2017-06-23T09:19:29.062Z,943.4
2017-06-23T09:20:37.153Z,943.4
2017-06-23T09:21:45.241Z,943.4
2017-06-23T09:22:53.535Z,943.4
2017-06-23T09:24:01.432Z,943.3
2017-06-23T09:25:09.522Z,943.4
2017-06-23T09:26:17.612Z,943.4
2017-06-23T09:27:25.700Z,943.4
2017-06-23T09:28:33.989Z,943.5
2017-06-23T09:29:41.975Z,943.4
2017-06-23T09:30:49.974Z,943.4
2017-06-23T09:31:58.064Z,943.4
2017-06-23T09:33:06.211Z,943.4
2017-06-23T09:34:14.367Z,943.5
2017-06-23T09:35:22.336Z,943.3
2017-06-23T09:36:30.428Z,943.4
2017-06-23T09:37:38.517Z,943.3
2017-06-23T09:38:46.607Z,943.3
2017-06-23T09:39:54.816Z,943.3
2017-06-23T09:41:02.786Z,943.3
2017-06-23T09:42:10.877Z,943.2
2017-06-23T09:43:18.966Z,943.3
2017-06-23T09:44:27.059Z,943.4
2017-06-23T09:45:35.370Z,943.3
2017-06-23T09:46:43.421Z,943.3
2017-06-23T09:47:51.338Z,943.3
2017-06-23T09:48:59.547Z,943.3
2017-06-23T09:50:07.530Z,943.3
2017-06-23T09:51:15.675Z,943.2
2017-06-23T09:52:23.805Z,943.3
2017-06-23T09:53:31.801Z,943.2
2017-06-23T09:54:39.889Z,943.3
2017-06-23T09:55:47.982Z,943.3
2017-06-23T09:56:56.190Z,943.3
2017-06-23T09:58:04.188Z,943.3
2017-06-23T09:59:12.252Z,943.3
2017-06-23T10:00:20.341Z,943.3
2017-06-23T10:01:28.434Z,943.2
2017-06-23T10:02:36.645Z,943.2
2017-06-23T10:03:44.621Z,943.3
2017-06-23T10:04:52.831Z,943.3
2017-06-23T10:06:00.809Z,943.3
2017-06-23T10:07:08.892Z,943.2
2017-06-23T10:08:17.106Z,943.2
2017-06-23T10:09:25.254Z,943.2
2017-06-23T10:10:33.168Z,943.2
2017-06-23T10:11:41.256Z,943.3
2017-06-23T10:12:49.346Z,943.2
2017-06-23T19:45:55.767Z,944.3
2017-06-23T19:47:03.567Z,944.3
2017-06-23T19:48:11.790Z,944.3
2017-06-23T19:49:19.901Z,944.4
2017-06-23T19:50:27.756Z,944.4
2017-06-23T19:51:36.403Z,944.3
2017-06-23T19:52:44.224Z,944.4
2017-06-23T19:53:52.293Z,944.4
2017-06-23T19:55:00.258Z,944.4
2017-06-23T19:56:08.353Z,944.4
2017-06-23T19:57:17.066Z,944.4
2017-06-23T19:58:24.700Z,944.4
2017-06-23T19:59:32.553Z,944.4
2017-06-23T20:00:40.633Z,944.5
2017-06-23T20:01:49.007Z,944.5
2017-06-23T20:02:57.064Z,944.5
2017-06-23T20:04:05.011Z,944.5
2017-06-23T20:05:13.109Z,944.5
2017-06-23T20:06:21.183Z,944.5
2017-06-23T20:07:29.339Z,944.5
2017-06-23T20:08:37.890Z,944.5
2017-06-23T20:09:45.669Z,944.5
2017-06-23T20:10:53.462Z,944.5
2017-06-23T20:12:01.735Z,944.5
2017-06-23T20:13:09.722Z,944.5
2017-06-23T20:14:18.413Z,944.5
2017-06-23T20:15:26.076Z,944.5
2017-06-23T20:16:33.819Z,944.5
2017-06-23T20:17:42.298Z,944.5
2017-06-23T20:18:50.119Z,944.5
2017-06-23T20:19:58.468Z,944.5
2017-06-23T20:21:06.380Z,944.5
2017-06-23T20:22:14.470Z,944.5
2017-06-23T20:23:22.395Z,944.5
2017-06-23T20:24:30.825Z,944.5
2017-06-23T20:25:39.316Z,944.5
2017-06-23T20:26:46.947Z,944.6
2017-06-23T20:27:54.910Z,944.5
2017-06-23T20:29:02.921Z,944.5
2017-06-23T20:30:11.045Z,944.5
2017-06-23T20:31:19.378Z,944.6
2017-06-23T20:32:27.230Z,944.6
2017-06-23T20:33:36.071Z,944.6
2017-06-23T20:34:43.496Z,944.6
2017-06-23T20:35:51.563Z,944.6
2017-06-23T20:37:00.054Z,944.5
2017-06-23T20:38:07.584Z,944.6
2017-06-23T20:39:15.970Z,944.6
2017-06-23T20:40:23.975Z,944.6
2017-06-23T20:41:32.142Z,944.6
2017-06-23T20:42:40.764Z,944.6
2017-06-23T20:43:48.327Z,944.6
2017-06-23T20:44:56.473Z,944.5
2017-06-23T20:46:04.450Z,944.6
2017-06-23T20:47:12.609Z,944.6
2017-06-23T20:48:21.187Z,944.6
2017-06-23T20:49:29.294Z,944.6
2017-06-23T20:50:36.755Z,944.6
2017-06-23T20:51:44.891Z,944.6
2017-06-23T20:52:52.781Z,944.7
2017-06-23T20:54:01.666Z,944.7
2017-06-23T20:55:09.280Z,944.7
2017-06-23T20:56:17.145Z,944.7
2017-06-23T20:57:25.332Z,944.7
2017-06-23T20:58:33.387Z,944.6
2017-06-23T20:59:41.957Z,944.7
2017-06-23T21:00:49.525Z,944.6
2017-06-23T21:01:57.672Z,944.7
2017-06-23T21:03:05.805Z,944.7
2017-06-23T21:04:13.807Z,944.7
2017-06-23T21:05:22.507Z,944.7
2017-06-23T21:06:30.041Z,944.8
2017-06-23T21:07:38.215Z,944.8
2017-06-23T21:08:46.094Z,944.7
2017-06-23T21:09:54.263Z,944.8
2017-06-23T21:11:02.563Z,944.8
2017-06-23T21:12:10.418Z,944.8
2017-06-23T21:13:18.386Z,944.8
2017-06-23T21:14:26.618Z,944.8
2017-06-23T21:15:34.663Z,944.8
2017-06-23T21:16:43.323Z,944.8
2017-06-23T21:17:50.966Z,944.8
2017-06-23T21:18:58.968Z,944.7
2017-06-23T21:20:07.091Z,944.7
2017-06-23T21:21:15.307Z,944.7
2017-06-23T21:22:23.496Z,944.7
2017-06-23T21:23:31.468Z,944.7
2017-06-23T21:24:39.616Z,944.7
2017-06-23T21:25:47.419Z,944.7
2017-06-23T21:26:55.492Z,944.7
2017-06-23T21:28:04.412Z,944.7
2017-06-23T21:29:11.941Z,944.7
2017-06-23T21:30:20.146Z,944.7
2017-06-23T21:31:28.289Z,944.6
2017-06-23T21:32:36.208Z,944.7
2017-06-23T21:33:44.324Z,944.7
2017-06-23T21:34:52.434Z,944.7
2017-06-23T21:36:00.443Z,944.7
2017-06-23T21:37:08.659Z,944.7
2017-06-23T21:38:16.460Z,944.7
2017-06-23T21:39:25.144Z,944.7
2017-06-23T21:40:32.854Z,944.7
2017-06-23T21:41:40.831Z,944.7
2017-06-23T21:42:49.090Z,944.7
2017-06-23T21:43:57.233Z,944.7
2017-06-23T21:45:05.727Z,944.7
2017-06-23T21:46:13.254Z,944.6
2017-06-23T21:47:21.186Z,944.7
2017-06-23T21:48:29.245Z,944.7
2017-06-23T21:49:37.429Z,944.6
2017-06-23T21:50:45.664Z,944.6
2017-06-23T21:51:53.540Z,944.6
2017-06-23T21:53:02.339Z,944.7
2017-06-23T21:54:09.921Z,944.6
2017-06-23T21:55:17.887Z,944.6
2017-06-23T21:56:26.133Z,944.7
2017-06-23T21:57:33.964Z,944.6
2017-06-23T21:58:42.080Z,944.6
2017-06-23T21:59:50.430Z,944.6
2017-06-23T22:00:58.283Z,944.7
2017-06-23T22:02:06.958Z,944.7
2017-06-23T22:03:14.395Z,944.7
2017-06-23T22:04:22.715Z,944.7
2017-06-23T22:05:30.705Z,944.7
2017-06-23T22:06:38.917Z,944.7
2017-06-23T22:07:47.392Z,944.7
2017-06-23T22:08:55.207Z,944.7
2017-06-23T22:10:03.082Z,944.7
2017-06-23T22:11:11.310Z,944.7
2017-06-23T22:12:19.147Z,944.7
2017-06-23T22:13:27.854Z,944.7
2017-06-23T22:14:35.517Z,944.8
2017-06-23T22:15:43.541Z,944.7
2017-06-23T22:16:51.657Z,944.7
2017-06-23T22:17:59.719Z,944.7
2017-06-23T22:19:08.334Z,944.7
2017-06-23T22:20:16.035Z,944.6
2017-06-23T22:21:23.950Z,944.6
2017-06-23T22:22:31.847Z,944.7
2017-06-23T22:23:40.035Z,944.7
2017-06-23T22:24:48.084Z,944.7
2017-06-23T22:25:56.116Z,944.7
2017-06-23T22:27:04.207Z,944.7
2017-06-23T22:28:12.299Z,944.7
2017-06-23T22:29:20.390Z,944.7
2017-06-23T22:30:28.624Z,944.7
2017-06-23T22:31:36.569Z,944.7
2017-06-23T22:32:44.660Z,944.7
2017-06-23T22:33:52.950Z,944.6
2017-06-23T22:35:00.921Z,944.6
2017-06-23T22:36:09.054Z,944.6
2017-06-23T22:37:17.025Z,944.6
2017-06-23T22:38:25.116Z,944.6
2017-06-23T22:39:33.227Z,944.7
2017-06-23T22:40:41.584Z,944.7
2017-06-23T22:41:49.442Z,944.7
2017-06-23T22:42:57.477Z,944.7
2017-06-23T22:44:05.565Z,944.8
2017-06-23T22:45:13.656Z,944.8
2017-06-23T22:46:21.833Z,944.8
2017-06-23T22:47:30.064Z,944.8
2017-06-23T22:48:37.927Z,944.8
2017-06-23T22:49:46.019Z,944.8
2017-06-23T22:50:54.112Z,944.9
2017-06-23T22:52:02.200Z,944.9
2017-06-23T22:53:10.444Z,944.9
2017-06-23T22:54:18.378Z,944.9
2017-06-23T22:55:26.469Z,945.0
2017-06-23T22:56:34.616Z,945.0
2017-06-23T22:57:42.651Z,945.0
2017-06-23T22:58:50.861Z,945.0
2017-06-23T22:59:58.831Z,945.0
2017-06-23T23:01:06.922Z,945.0
2017-06-23T23:02:15.010Z,945.0
2017-06-23T23:03:23.101Z,945.0
2017-06-23T23:04:31.246Z,945.1
2017-06-23T23:05:39.281Z,945.1
2017-06-23T23:06:47.372Z,945.1
2017-06-23T23:07:55.464Z,945.0
2017-06-23T23:09:03.554Z,945.1
2017-06-23T23:10:11.764Z,945.1
2017-06-23T23:11:19.733Z,945.1
2017-06-23T23:12:27.945Z,945.1
2017-06-23T23:13:35.913Z,945.1
2017-06-23T23:14:44.004Z,945.0
2017-06-23T23:15:52.292Z,945.0
2017-06-23T23:17:00.186Z,945.1
2017-06-23T23:18:08.284Z,945.0
2017-06-23T23:19:16.378Z,945.0
2017-06-23T23:20:24.467Z,945.1
2017-06-23T23:21:32.678Z,945.1
2017-06-23T23:22:40.667Z,945.1
2017-06-23T23:23:48.738Z,945.1
2017-06-23T23:24:56.828Z,945.1
2017-06-23T23:26:04.926Z,945.1
2017-06-23T23:27:13.138Z,945.1
2017-06-23T23:28:21.162Z,945.1
2017-06-23T23:29:29.198Z,945.1
2017-06-23T23:30:37.286Z,945.1
2017-06-23T23:31:45.377Z,945.1
2017-06-23T23:32:53.767Z,945.1
2017-06-23T23:34:01.559Z,945.1
2017-06-23T23:35:09.650Z,945.1
